Terminal Aerodrome Forecast
Issued by NWS Pittsburgh, PA

Current Version | Previous Version | Graphics & Text | Print | Product List | Glossary On
Versions: 1 2 3 4 5 6 7 8 9 10 11 12 13 14 15 16 17 18 19 20 21 22 23 24 25 26 27 28 29 30 31
000
FTUS41 KPBZ 141221 AAA
TAFPIT
TAF AMD
KPIT 141221Z 1412/1518 00000KT 3/4SM BR SKC
     FM141300 VRB02KT 3SM BR SKC
     FM141330 18006KT P6SM FEW250
     FM150000 20008KT P6SM SCT250
     FM151500 22015G25KT P6SM BKN250=

USA.gov is the U.S. government's official web portal to all federal, state and local government web resources and services.